Time;durP1;ratioP1;P1;durP2;ratioP2;P2;SDS_P1;SDS_P2;PMS_P1;PMS_P2;Temp;Humidity;BMP_temperature;BMP_pressure;BME280_temperature;BME280_humidity;BME280_pressure;Samples;Min_cycle;Max_cycle;Signal;HPM_P1;HPM_P2
2023/10/21 00:01:07;;;;;;;12.40;12.00;;;17.40;99.90;;;;;;5034345;28;20675;-66
2023/10/21 00:03:34;;;;;;;12.73;12.33;;;17.40;99.90;;;;;;5034013;28;20208;-66
2023/10/21 00:06:01;;;;;;;13.70;13.23;;;17.40;99.90;;;;;;5034455;28;20211;-65
2023/10/21 00:08:28;;;;;;;12.60;12.20;;;17.40;99.90;;;;;;5033816;28;20209;-66
2023/10/21 00:11:03;;;;;;;12.53;12.13;;;17.40;99.90;;;;;;5032253;28;20569;-67
2023/10/21 00:13:30;;;;;;;12.23;11.83;;;17.40;99.90;;;;;;5033950;28;20208;-69
2023/10/21 00:15:57;;;;;;;14.40;13.90;;;17.40;99.90;;;;;;5033984;28;20209;-66
2023/10/21 00:18:25;;;;;;;12.70;12.30;;;17.40;99.90;;;;;;5033636;28;20208;-66
2023/10/21 00:20:53;;;;;;;12.20;11.80;;;17.40;99.90;;;;;;5033397;28;20667;-67
2023/10/21 00:23:20;;;;;;;13.10;12.60;;;17.40;99.90;;;;;;5034246;28;20812;-67
2023/10/21 00:25:47;;;;;;;11.97;11.57;;;17.40;99.90;;;;;;5034237;28;20232;-67
2023/10/21 00:28:15;;;;;;;12.13;11.73;;;17.40;99.90;;;;;;5033936;28;20201;-66
2023/10/21 00:30:45;;;;;;;12.40;12.00;;;17.40;99.90;;;;;;5033361;28;20278;-67
2023/10/21 00:33:12;;;;;;;12.77;12.37;;;17.50;99.90;;;;;;5033156;28;20737;-66
2023/10/21 00:35:39;;;;;;;12.50;12.10;;;17.50;99.90;;;;;;5032917;28;20211;-67
2023/10/21 00:38:06;;;;;;;12.20;11.80;;;17.40;99.90;;;;;;5033331;28;20212;-66
2023/10/21 00:40:33;;;;;;;12.50;12.10;;;17.50;99.90;;;;;;5033748;28;20581;-67
2023/10/21 00:43:00;;;;;;;12.50;12.10;;;17.50;99.90;;;;;;5035201;28;20221;-67
2023/10/21 00:45:28;;;;;;;12.10;11.70;;;17.50;99.90;;;;;;5034263;28;20201;-67
2023/10/21 00:47:55;;;;;;;11.80;11.40;;;17.50;99.90;;;;;;5032081;28;20200;-67
2023/10/21 00:50:22;;;;;;;12.63;12.03;;;17.40;99.90;;;;;;5033500;28;20569;-66
2023/10/21 00:52:49;;;;;;;11.80;11.40;;;17.40;99.90;;;;;;5033877;28;20228;-67
2023/10/21 00:55:16;;;;;;;12.53;12.13;;;17.40;99.90;;;;;;5033443;28;20201;-66
2023/10/21 00:57:43;;;;;;;12.57;12.17;;;17.40;99.90;;;;;;5033262;28;20209;-66
2023/10/21 01:00:11;;;;;;;12.20;11.80;;;17.40;99.90;;;;;;5033187;28;20205;-66
2023/10/21 01:02:41;;;;;;;12.30;11.90;;;17.40;99.90;;;;;;5033096;28;20236;-67
2023/10/21 01:05:08;;;;;;;12.97;12.57;;;17.40;99.90;;;;;;5033470;28;20205;-66
2023/10/21 01:07:36;;;;;;;12.40;12.00;;;17.40;99.90;;;;;;5033053;28;20203;-67
2023/10/21 01:10:03;;;;;;;13.00;12.50;;;17.40;99.90;;;;;;5032812;28;20205;-67
2023/10/21 01:12:30;;;;;;;12.60;12.20;;;17.40;99.90;;;;;;5032831;28;20228;-66
2023/10/21 01:14:57;;;;;;;12.80;12.40;;;17.40;99.90;;;;;;5033429;28;20204;-66
2023/10/21 01:17:24;;;;;;;13.17;12.77;;;17.40;99.90;;;;;;5033864;28;20200;-66
2023/10/21 01:19:52;;;;;;;12.93;12.53;;;17.30;99.90;;;;;;5033520;28;20201;-66
2023/10/21 01:22:18;;;;;;;12.83;12.43;;;17.30;99.90;;;;;;5033206;28;20280;-67
2023/10/21 01:24:46;;;;;;;12.80;12.40;;;17.30;99.90;;;;;;5035160;28;20288;-66
2023/10/21 01:27:13;;;;;;;12.60;12.20;;;17.30;99.90;;;;;;5038523;28;20201;-66
2023/10/21 01:29:40;;;;;;;13.07;12.67;;;17.30;99.90;;;;;;5040141;28;20201;-66
2023/10/21 01:32:07;;;;;;;12.77;12.37;;;17.20;99.90;;;;;;5034810;28;20220;-66
2023/10/21 01:34:34;;;;;;;13.10;12.70;;;17.20;99.90;;;;;;5040091;28;20228;-66
2023/10/21 01:37:01;;;;;;;12.87;12.47;;;17.30;99.90;;;;;;5033299;28;20196;-66
2023/10/21 01:39:27;;;;;;;12.93;12.43;;;17.30;99.90;;;;;;5033154;28;20837;-66
2023/10/21 01:41:55;;;;;;;12.70;12.27;;;17.30;99.90;;;;;;5030610;28;20224;-66
2023/10/21 01:44:22;;;;;;;12.40;12.00;;;17.20;99.90;;;;;;5032622;28;20211;-66
2023/10/21 01:46:52;;;;;;;12.70;12.30;;;17.30;99.90;;;;;;5032551;28;20223;-67
2023/10/21 01:49:19;;;;;;;12.73;12.33;;;17.30;99.90;;;;;;5031887;28;20200;-66
2023/10/21 01:51:46;;;;;;;12.60;12.20;;;17.30;99.90;;;;;;5031621;28;20243;-65
2023/10/21 01:54:12;;;;;;;11.93;11.53;;;17.30;99.90;;;;;;5032364;28;20204;-66
2023/10/21 01:56:39;;;;;;;12.30;11.90;;;17.30;99.90;;;;;;5032131;28;20219;-66
2023/10/21 01:59:08;;;;;;;12.23;11.83;;;17.30;99.90;;;;;;5031990;28;20278;-66
2023/10/21 02:01:34;;;;;;;12.53;12.13;;;17.30;99.90;;;;;;5031441;28;20229;-65
2023/10/21 02:04:01;;;;;;;12.40;12.00;;;17.30;99.90;;;;;;5031825;28;20205;-66
2023/10/21 02:06:28;;;;;;;12.90;12.50;;;17.20;99.90;;;;;;5032274;28;20201;-66
2023/10/21 02:08:55;;;;;;;12.10;11.70;;;17.20;99.90;;;;;;5031969;28;20561;-67
2023/10/21 02:11:22;;;;;;;12.13;11.73;;;17.20;99.90;;;;;;5032602;28;20234;-66
2023/10/21 02:13:49;;;;;;;12.50;12.10;;;17.20;99.90;;;;;;5036006;28;20636;-67
2023/10/21 02:16:17;;;;;;;12.23;11.83;;;17.20;99.90;;;;;;5036203;28;20612;-66
2023/10/21 02:18:44;;;;;;;12.00;11.60;;;17.20;99.90;;;;;;5036063;28;20215;-65
2023/10/21 02:21:11;;;;;;;12.77;12.37;;;17.10;99.90;;;;;;5035595;28;20201;-66
2023/10/21 02:23:37;;;;;;;12.67;12.27;;;17.10;99.90;;;;;;5035921;28;20216;-66
2023/10/21 02:26:06;;;;;;;12.20;11.80;;;17.10;99.90;;;;;;5035769;28;20203;-66
2023/10/21 02:28:34;;;;;;;12.20;11.80;;;17.10;99.90;;;;;;5035684;28;20204;-66
2023/10/21 02:31:03;;;;;;;13.40;13.00;;;17.10;99.90;;;;;;5035168;28;20293;-68
2023/10/21 02:33:31;;;;;;;12.30;11.90;;;17.00;99.90;;;;;;5035731;28;20299;-66
2023/10/21 02:35:58;;;;;;;12.63;12.23;;;17.00;99.90;;;;;;5036024;28;20630;-66
2023/10/21 02:38:25;;;;;;;11.90;11.50;;;17.00;99.90;;;;;;5035663;28;20208;-66
2023/10/21 02:40:52;;;;;;;12.43;12.03;;;16.90;99.90;;;;;;5034984;28;20287;-66
2023/10/21 02:43:18;;;;;;;12.53;12.13;;;16.90;99.90;;;;;;5035180;28;20197;-67
2023/10/21 02:45:45;;;;;;;12.17;11.77;;;16.90;99.90;;;;;;5035260;28;20580;-67
2023/10/21 02:48:12;;;;;;;12.00;11.60;;;16.90;99.90;;;;;;5035543;28;20231;-68
2023/10/21 02:50:40;;;;;;;11.97;11.57;;;16.90;99.90;;;;;;5035387;28;20201;-66
2023/10/21 02:53:07;;;;;;;12.00;11.60;;;16.90;99.90;;;;;;5030201;28;20231;-67
2023/10/21 02:55:34;;;;;;;12.50;12.10;;;16.90;99.90;;;;;;5036344;28;20201;-66
2023/10/21 02:58:01;;;;;;;12.50;12.10;;;17.00;99.90;;;;;;5035905;28;20217;-67
2023/10/21 03:00:28;;;;;;;12.73;12.33;;;17.00;99.90;;;;;;5035565;28;20295;-66
2023/10/21 03:02:55;;;;;;;12.40;12.00;;;16.90;99.90;;;;;;5035572;28;20327;-66
2023/10/21 03:05:22;;;;;;;12.70;12.30;;;17.00;99.90;;;;;;5035845;28;20208;-66
2023/10/21 03:07:50;;;;;;;12.50;12.10;;;17.00;99.90;;;;;;5035624;28;20308;-66
2023/10/21 03:10:17;;;;;;;12.23;11.73;;;17.00;99.90;;;;;;5034890;28;20208;-66
2023/10/21 03:12:44;;;;;;;12.10;11.70;;;17.00;99.90;;;;;;5033953;28;20240;-66
2023/10/21 03:15:11;;;;;;;12.40;12.00;;;17.00;99.90;;;;;;5035399;28;20203;-65
2023/10/21 03:17:37;;;;;;;12.30;11.90;;;17.00;99.90;;;;;;5035300;28;20208;-66
2023/10/21 03:20:06;;;;;;;11.93;11.53;;;17.00;99.90;;;;;;5034589;28;20212;-66
2023/10/21 03:22:33;;;;;;;11.77;11.37;;;17.00;99.90;;;;;;5033728;28;20253;-66
2023/10/21 03:25:02;;;;;;;12.07;11.67;;;17.10;99.90;;;;;;5035403;28;20670;-67
2023/10/21 03:27:29;;;;;;;12.30;11.90;;;17.10;99.90;;;;;;5042607;28;20586;-66
2023/10/21 03:29:55;;;;;;;12.33;11.93;;;17.00;99.90;;;;;;5036083;28;20204;-66
2023/10/21 03:32:22;;;;;;;12.70;12.30;;;17.10;99.90;;;;;;5032608;28;20229;-67
2023/10/21 03:34:49;;;;;;;12.60;12.20;;;17.10;99.90;;;;;;5035841;28;20224;-66
2023/10/21 03:37:15;;;;;;;12.50;12.10;;;17.10;99.90;;;;;;5046347;28;20215;-66
2023/10/21 03:39:42;;;;;;;12.70;12.30;;;17.10;99.90;;;;;;5035394;28;20590;-65
2023/10/21 03:42:10;;;;;;;13.90;13.40;;;17.10;99.90;;;;;;5036244;28;20228;-65
2023/10/21 03:44:37;;;;;;;13.53;13.13;;;17.00;99.90;;;;;;5044822;28;20205;-67
2023/10/21 03:47:04;;;;;;;13.87;13.37;;;17.00;99.90;;;;;;5043033;28;20208;-65
2023/10/21 03:49:31;;;;;;;12.93;12.53;;;17.00;99.90;;;;;;5041721;28;20204;-66
2023/10/21 03:51:58;;;;;;;12.70;12.30;;;17.00;99.90;;;;;;5044678;28;20243;-66
2023/10/21 03:54:24;;;;;;;12.87;12.47;;;17.00;99.90;;;;;;5047502;28;20212;-67
2023/10/21 03:56:51;;;;;;;12.70;12.30;;;17.00;99.90;;;;;;5034077;28;20575;-65
2023/10/21 03:59:19;;;;;;;14.27;13.77;;;16.90;99.90;;;;;;5035156;28;20204;-66
2023/10/21 04:01:46;;;;;;;13.90;13.40;;;16.90;99.90;;;;;;5035049;28;20252;-66
2023/10/21 04:04:13;;;;;;;12.33;11.93;;;16.90;99.90;;;;;;5035042;28;20208;-65
2023/10/21 04:06:40;;;;;;;13.13;12.73;;;16.90;99.90;;;;;;5033948;28;20209;-66
2023/10/21 04:09:09;;;;;;;13.30;12.90;;;16.90;99.90;;;;;;5035012;28;20200;-64
2023/10/21 04:11:36;;;;;;;13.17;12.60;;;16.90;99.90;;;;;;5033609;28;20728;-67
2023/10/21 04:14:04;;;;;;;13.20;12.80;;;16.90;99.90;;;;;;5033671;28;20212;-66
2023/10/21 04:16:32;;;;;;;14.37;13.87;;;16.90;99.90;;;;;;5035270;28;20667;-66
2023/10/21 04:18:58;;;;;;;13.20;12.80;;;16.80;99.90;;;;;;5033053;28;20212;-66
2023/10/21 04:21:26;;;;;;;13.47;13.07;;;16.80;99.90;;;;;;5032946;28;20228;-67
2023/10/21 04:23:53;;;;;;;20.07;19.37;;;16.80;99.90;;;;;;5032963;28;20209;-66
2023/10/21 04:26:19;;;;;;;13.03;12.63;;;16.70;99.90;;;;;;5032694;28;20216;-65
2023/10/21 04:28:46;;;;;;;12.80;12.40;;;16.70;99.90;;;;;;5032454;28;20565;-66
2023/10/21 04:31:13;;;;;;;12.77;12.37;;;16.70;99.90;;;;;;5032480;28;20233;-66
2023/10/21 04:33:41;;;;;;;12.70;12.30;;;16.70;99.90;;;;;;5031987;28;20244;-67
2023/10/21 04:36:08;;;;;;;13.53;13.03;;;16.60;99.90;;;;;;5025747;28;20212;-66
2023/10/21 04:38:34;;;;;;;13.30;12.90;;;16.60;99.90;;;;;;5032477;28;20212;-66
2023/10/21 04:41:02;;;;;;;14.07;13.57;;;16.60;99.90;;;;;;5031671;28;20204;-64
2023/10/21 04:43:29;;;;;;;12.60;12.20;;;16.60;99.90;;;;;;5032126;28;20964;-65
2023/10/21 04:45:56;;;;;;;13.07;12.67;;;16.60;99.90;;;;;;5032202;28;20227;-66
2023/10/21 04:48:22;;;;;;;13.10;12.70;;;16.60;99.90;;;;;;5031835;28;20216;-66
2023/10/21 04:50:50;;;;;;;12.33;11.93;;;16.60;99.90;;;;;;5032545;28;20564;-67
2023/10/21 04:53:17;;;;;;;12.80;12.40;;;16.60;99.90;;;;;;5031968;28;20235;-66
2023/10/21 04:55:44;;;;;;;13.03;12.63;;;16.60;99.90;;;;;;5031674;28;20204;-67
2023/10/21 04:58:11;;;;;;;13.37;12.97;;;16.60;99.90;;;;;;5031825;28;20208;-67
2023/10/21 05:00:37;;;;;;;12.73;12.33;;;16.70;99.90;;;;;;5031667;28;20593;-65
2023/10/21 05:03:04;;;;;;;13.23;12.63;;;16.60;99.90;;;;;;5031298;28;20236;-67
2023/10/21 05:05:34;;;;;;;12.93;12.53;;;16.70;99.90;;;;;;5031764;28;20664;-66
2023/10/21 05:08:02;;;;;;;13.30;12.90;;;16.70;99.90;;;;;;5031701;28;20201;-66
2023/10/21 05:10:29;;;;;;;12.93;12.53;;;16.60;99.90;;;;;;5031811;28;20236;-66
2023/10/21 05:12:56;;;;;;;13.87;13.37;;;16.60;99.90;;;;;;5031477;28;20232;-66
2023/10/21 05:15:23;;;;;;;12.80;12.40;;;16.60;99.90;;;;;;5031522;28;20698;-66
2023/10/21 05:17:50;;;;;;;12.80;12.40;;;16.60;99.90;;;;;;5031679;28;20208;-66
2023/10/21 05:20:17;;;;;;;14.07;13.57;;;16.60;99.90;;;;;;5031521;28;20212;-65
2023/10/21 05:22:45;;;;;;;12.83;12.43;;;16.50;99.90;;;;;;5031199;28;20317;-67
2023/10/21 05:25:13;;;;;;;13.20;12.80;;;16.40;99.90;;;;;;5031598;28;20597;-66
2023/10/21 05:27:39;;;;;;;13.20;12.70;;;16.40;99.90;;;;;;5031409;28;20211;-67
2023/10/21 05:30:08;;;;;;;12.83;12.43;;;16.40;99.90;;;;;;5030872;28;20580;-66
2023/10/21 05:32:34;;;;;;;12.70;12.30;;;16.40;99.90;;;;;;5031239;28;20245;-67
2023/10/21 05:35:01;;;;;;;12.80;12.40;;;16.40;99.90;;;;;;5031303;28;20196;-66
2023/10/21 05:37:28;;;;;;;13.00;12.60;;;16.40;99.90;;;;;;5031340;28;20296;-66
2023/10/21 05:39:54;;;;;;;12.67;12.27;;;16.40;99.90;;;;;;5029700;28;20208;-67
2023/10/21 05:42:23;;;;;;;12.53;12.13;;;16.40;99.90;;;;;;5031189;28;20821;-66
2023/10/21 05:44:49;;;;;;;12.60;12.20;;;16.50;99.90;;;;;;5031110;28;20204;-67
2023/10/21 05:47:17;;;;;;;12.83;12.43;;;16.50;99.90;;;;;;5031432;28;20200;-66
2023/10/21 05:49:43;;;;;;;13.00;12.53;;;16.50;99.90;;;;;;5031184;28;20205;-66
2023/10/21 05:52:10;;;;;;;12.97;12.47;;;16.50;99.90;;;;;;5030748;28;20224;-66
2023/10/21 05:54:37;;;;;;;12.70;12.30;;;16.50;99.90;;;;;;5030970;28;20965;-66
2023/10/21 05:57:04;;;;;;;12.43;12.03;;;16.50;99.90;;;;;;5031218;28;20211;-66
2023/10/21 05:59:33;;;;;;;12.57;12.17;;;16.50;99.90;;;;;;5032670;28;20304;-66
2023/10/21 06:02:00;;;;;;;12.93;12.53;;;16.60;99.90;;;;;;5031180;28;20228;-66
2023/10/21 06:04:27;;;;;;;12.87;12.40;;;16.60;99.90;;;;;;5031738;28;20215;-65
2023/10/21 06:06:55;;;;;;;12.10;11.70;;;16.60;99.90;;;;;;5031019;28;20205;-66
2023/10/21 06:09:23;;;;;;;12.20;11.80;;;16.50;99.90;;;;;;5031373;28;20212;-67
2023/10/21 06:11:51;;;;;;;11.97;11.57;;;16.60;99.90;;;;;;5033474;28;20251;-66
2023/10/21 06:14:18;;;;;;;12.60;12.20;;;16.50;99.90;;;;;;5033733;28;20235;-65
2023/10/21 06:16:46;;;;;;;12.40;12.00;;;16.50;99.90;;;;;;5040200;28;20311;-66
2023/10/21 06:19:13;;;;;;;12.10;11.70;;;16.50;99.90;;;;;;5050526;28;20303;-66
2023/10/21 06:21:40;;;;;;;12.90;12.50;;;16.50;99.90;;;;;;5046255;28;20315;-66
2023/10/21 06:24:08;;;;;;;12.13;11.73;;;16.40;99.90;;;;;;5043157;28;20203;-66
2023/10/21 06:26:34;;;;;;;12.47;12.03;;;16.40;99.90;;;;;;5042370;28;20208;-66
2023/10/21 06:29:02;;;;;;;12.87;12.47;;;16.40;99.90;;;;;;5044995;28;20280;-66
2023/10/21 06:31:28;;;;;;;13.03;12.63;;;16.40;99.90;;;;;;5042010;28;20286;-65
2023/10/21 06:33:56;;;;;;;13.50;13.00;;;16.40;99.90;;;;;;5034325;28;20239;-66
2023/10/21 06:36:23;;;;;;;12.73;12.33;;;16.40;99.90;;;;;;5033507;28;20213;-66
2023/10/21 06:38:52;;;;;;;12.20;11.80;;;16.40;99.90;;;;;;5031683;28;20205;-66
2023/10/21 06:41:19;;;;;;;12.23;11.83;;;16.40;99.90;;;;;;5032049;28;20232;-65
2023/10/21 06:43:46;;;;;;;12.57;12.17;;;16.40;99.90;;;;;;5039863;28;20209;-65
2023/10/21 06:46:13;;;;;;;12.60;12.20;;;16.30;99.90;;;;;;5032400;28;20288;-68
2023/10/21 06:48:40;;;;;;;13.33;12.83;;;16.40;99.90;;;;;;5031797;28;20216;-65
2023/10/21 06:51:08;;;;;;;12.87;12.47;;;16.40;99.90;;;;;;5031207;28;20251;-66
2023/10/21 06:53:35;;;;;;;12.40;12.00;;;16.40;99.90;;;;;;5031011;28;20258;-65
2023/10/21 06:56:02;;;;;;;12.27;11.87;;;16.30;99.90;;;;;;5031286;28;20204;-64
2023/10/21 06:58:29;;;;;;;12.07;11.67;;;16.30;99.90;;;;;;5033508;28;20678;-67
2023/10/21 07:00:56;;;;;;;12.43;12.03;;;16.30;99.90;;;;;;5034039;28;20212;-66
2023/10/21 07:03:22;;;;;;;13.00;12.60;;;16.30;99.90;;;;;;5034291;28;20204;-66
2023/10/21 07:05:49;;;;;;;12.03;11.63;;;16.30;99.90;;;;;;5034451;28;20218;-65
2023/10/21 07:08:17;;;;;;;12.00;11.60;;;16.30;99.90;;;;;;5034724;28;20205;-65
2023/10/21 07:10:44;;;;;;;12.17;11.77;;;16.30;99.90;;;;;;5035590;28;20219;-65
2023/10/21 07:13:11;;;;;;;11.93;11.53;;;16.30;99.90;;;;;;5030856;28;20323;-65
2023/10/21 07:15:40;;;;;;;12.27;11.87;;;16.40;99.90;;;;;;5037175;28;20213;-64
2023/10/21 07:18:07;;;;;;;12.10;11.70;;;16.40;99.90;;;;;;5036715;28;20671;-65
2023/10/21 07:20:36;;;;;;;11.93;11.53;;;16.50;99.90;;;;;;5035033;28;20220;-64
2023/10/21 07:23:03;;;;;;;12.10;11.70;;;16.50;99.90;;;;;;5034846;28;20255;-65
2023/10/21 07:25:31;;;;;;;12.10;11.70;;;16.60;99.90;;;;;;5035118;28;20215;-65
2023/10/21 07:27:58;;;;;;;12.27;11.87;;;16.70;99.90;;;;;;5034701;28;20210;-62
2023/10/21 07:30:27;;;;;;;12.20;11.80;;;16.80;99.90;;;;;;5034517;28;20659;-65
2023/10/21 07:32:55;;;;;;;12.20;11.80;;;16.90;99.90;;;;;;5032623;28;20290;-65
2023/10/21 07:35:22;;;;;;;12.20;11.80;;;16.90;99.90;;;;;;5034092;28;20280;-65
2023/10/21 07:37:49;;;;;;;12.90;12.40;;;17.10;99.90;;;;;;5033993;28;20851;-64
2023/10/21 07:40:16;;;;;;;12.50;12.10;;;17.10;99.90;;;;;;5034334;28;20266;-65
2023/10/21 07:42:45;;;;;;;12.50;12.10;;;17.20;99.90;;;;;;5033997;28;20232;-66
2023/10/21 07:45:14;;;;;;;12.67;12.27;;;17.30;99.90;;;;;;5028193;28;20292;-66
2023/10/21 07:47:41;;;;;;;13.20;12.80;;;17.30;99.90;;;;;;5033804;28;20201;-65
2023/10/21 07:50:08;;;;;;;12.00;11.60;;;17.40;99.90;;;;;;5033745;28;20201;-65
2023/10/21 07:52:37;;;;;;;12.00;11.60;;;17.50;99.90;;;;;;5034335;28;20311;-65
2023/10/21 07:55:04;;;;;;;12.47;12.07;;;17.60;99.90;;;;;;5033759;28;20295;-64
2023/10/21 07:57:31;;;;;;;12.37;11.97;;;17.60;99.90;;;;;;5035458;28;20243;-65
2023/10/21 08:00:00;;;;;;;11.87;11.47;;;17.70;99.90;;;;;;5036053;28;20292;-64
2023/10/21 08:02:27;;;;;;;12.10;11.70;;;17.70;99.90;;;;;;5038346;28;20243;-64
2023/10/21 08:04:54;;;;;;;12.00;11.60;;;17.70;99.90;;;;;;5039774;28;20212;-66
2023/10/21 08:07:21;;;;;;;11.80;11.40;;;17.80;99.90;;;;;;5040875;28;20291;-65
2023/10/21 08:09:48;;;;;;;11.90;11.50;;;17.80;99.90;;;;;;5038909;28;20208;-65
2023/10/21 08:12:15;;;;;;;11.77;11.37;;;18.00;99.90;;;;;;5043969;28;20293;-66
2023/10/21 08:14:42;;;;;;;12.30;11.90;;;18.00;99.90;;;;;;5042407;28;20779;-65
2023/10/21 08:17:10;;;;;;;12.10;11.70;;;18.10;99.90;;;;;;5047091;28;20285;-64
2023/10/21 08:19:37;;;;;;;11.93;11.53;;;18.30;99.90;;;;;;5043406;28;20216;-66
2023/10/21 08:22:05;;;;;;;11.70;11.30;;;18.30;99.90;;;;;;5034239;28;20236;-66
2023/10/21 08:24:32;;;;;;;11.83;11.43;;;18.40;99.90;;;;;;5034735;28;20197;-65
2023/10/21 08:27:00;;;;;;;11.90;11.50;;;18.50;99.90;;;;;;5034310;28;20215;-65
2023/10/21 08:29:26;;;;;;;11.83;11.43;;;18.50;99.90;;;;;;5035401;28;20240;-64
2023/10/21 08:31:53;;;;;;;12.03;11.63;;;18.70;99.90;;;;;;5035271;28;20228;-63
2023/10/21 08:34:22;;;;;;;12.70;12.30;;;18.70;99.90;;;;;;5032733;28;20687;-66
2023/10/21 08:36:49;;;;;;;13.33;12.83;;;18.80;99.90;;;;;;5032728;28;20273;-65
2023/10/21 08:39:16;;;;;;;13.53;13.03;;;18.90;99.90;;;;;;5027203;28;20283;-66
2023/10/21 08:41:43;;;;;;;13.57;13.07;;;18.90;99.90;;;;;;5032109;28;20707;-65
2023/10/21 08:44:13;;;;;;;13.87;13.37;;;18.90;99.90;;;;;;5032509;28;20204;-65
2023/10/21 08:46:41;;;;;;;12.83;12.43;;;18.80;99.90;;;;;;5032153;28;20251;-64
2023/10/21 08:49:09;;;;;;;12.60;12.20;;;18.70;99.90;;;;;;5032244;28;20205;-63
2023/10/21 08:51:38;;;;;;;13.20;12.77;;;18.50;99.90;;;;;;5032516;28;20331;-66
2023/10/21 08:54:06;;;;;;;13.50;13.00;;;18.60;99.90;;;;;;5032213;28;20267;-64
2023/10/21 08:56:35;;;;;;;12.50;12.10;;;18.60;99.90;;;;;;5032863;28;20208;-65
2023/10/21 08:59:01;;;;;;;12.27;11.87;;;18.50;99.90;;;;;;5032672;28;20205;-66
2023/10/21 09:01:29;;;;;;;12.50;12.10;;;18.60;99.90;;;;;;5031555;28;20236;-65
2023/10/21 09:03:57;;;;;;;12.37;11.97;;;18.70;99.90;;;;;;5030619;28;20287;-65
2023/10/21 09:06:23;;;;;;;12.93;12.53;;;18.80;99.90;;;;;;5032161;28;20209;-66
2023/10/21 09:08:52;;;;;;;13.37;12.87;;;19.00;99.90;;;;;;5031336;28;20211;-65
2023/10/21 09:11:20;;;;;;;13.77;13.27;;;19.00;99.90;;;;;;5032634;28;20223;-66
2023/10/21 09:13:48;;;;;;;13.77;13.30;;;19.10;99.90;;;;;;5032426;28;20711;-65
2023/10/21 09:16:23;;;;;;;14.03;13.53;;;19.10;99.90;;;;;;5032992;28;20208;-65
2023/10/21 09:18:57;;;;;;;13.77;13.27;;;19.10;99.90;;;;;;5038738;28;20200;-65
2023/10/21 09:21:36;;;;;;;13.90;13.40;;;19.20;99.90;;;;;;5043232;28;20232;-66
2023/10/21 09:24:05;;;;;;;14.63;14.13;;;19.30;99.90;;;;;;5043963;28;20234;-66
2023/10/21 09:26:39;;;;;;;14.50;14.00;;;19.50;99.90;;;;;;5043156;28;20307;-66
2023/10/21 09:29:11;;;;;;;15.33;14.83;;;19.60;99.90;;;;;;5043200;28;20213;-66
2023/10/21 09:31:49;;;;;;;15.70;15.10;;;19.80;99.90;;;;;;5039595;28;20228;-65
2023/10/21 09:34:25;;;;;;;15.17;14.67;;;19.80;99.90;;;;;;5032929;28;20224;-64
2023/10/21 09:36:54;;;;;;;16.23;15.63;;;19.80;99.90;;;;;;5032259;28;20204;-63
2023/10/21 09:39:23;;;;;;;15.80;15.30;;;19.90;99.90;;;;;;5031798;28;20217;-65
2023/10/21 09:41:50;;;;;;;17.30;16.70;;;20.00;99.90;;;;;;5036460;28;20232;-65
2023/10/21 09:44:17;;;;;;;16.50;15.90;;;20.10;99.90;;;;;;5048350;28;20197;-66
2023/10/21 09:46:45;;;;;;;15.83;15.33;;;20.30;99.90;;;;;;5045130;28;20295;-65
2023/10/21 09:49:13;;;;;;;15.90;15.40;;;20.10;99.90;;;;;;5033479;28;20214;-65
2023/10/21 09:51:47;;;;;;;16.63;16.03;;;20.00;99.90;;;;;;5031367;28;20231;-65
2023/10/21 09:54:20;;;;;;;16.47;15.97;;;19.80;99.90;;;;;;5031775;28;20221;-64
2023/10/21 09:56:49;;;;;;;15.13;14.63;;;19.70;99.90;;;;;;5032747;28;20208;-65
2023/10/21 09:59:17;;;;;;;15.27;14.77;;;19.60;99.90;;;;;;5032000;28;20200;-65
2023/10/21 10:01:44;;;;;;;16.42;15.90;;;19.80;99.90;;;;;;5031961;28;20248;-64
2023/10/21 10:04:13;;;;;;;14.77;14.27;;;20.00;99.90;;;;;;5031536;28;20659;-65
2023/10/21 10:06:43;;;;;;;15.07;14.57;;;20.00;99.90;;;;;;5032079;28;20290;-64
2023/10/21 10:09:10;;;;;;;15.37;14.87;;;20.00;99.90;;;;;;5031577;28;20655;-65
2023/10/21 10:11:39;;;;;;;15.20;14.70;;;20.10;99.90;;;;;;5031438;28;20228;-64
2023/10/21 10:14:08;;;;;;;15.07;14.47;;;20.10;99.90;;;;;;5031523;28;20228;-64
2023/10/21 10:16:44;;;;;;;15.90;15.40;;;20.10;99.90;;;;;;5031583;28;20723;-65
2023/10/21 10:19:12;;;;;;;16.57;15.97;;;20.20;99.90;;;;;;5031673;28;20256;-64
2023/10/21 10:21:42;;;;;;;16.10;15.60;;;20.20;99.90;;;;;;5030658;28;20224;-64
2023/10/21 10:24:09;;;;;;;15.90;15.40;;;20.30;99.90;;;;;;5032275;28;20266;-66
2023/10/21 10:26:37;;;;;;;16.50;15.93;;;20.30;99.90;;;;;;5031853;28;20212;-66
2023/10/21 10:29:25;;;;;;;16.35;15.75;;;20.50;99.90;;;;;;5031606;28;20260;-66
2023/10/21 10:32:12;;;;;;;16.80;16.20;;;20.70;99.90;;;;;;5032016;28;20321;-64
2023/10/21 10:34:50;;;;;;;16.27;15.70;;;20.80;99.90;;;;;;5035812;28;20227;-65
2023/10/21 10:37:26;;;;;;;17.83;17.23;;;20.40;99.90;;;;;;5036165;28;20554;-65
2023/10/21 10:39:54;;;;;;;17.17;16.57;;;20.60;99.90;;;;;;5035505;28;20295;-65
2023/10/21 10:42:25;;;;;;;17.83;17.23;;;20.70;99.90;;;;;;5035758;28;20224;-65
2023/10/21 10:44:55;;;;;;;16.83;16.23;;;20.60;99.90;;;;;;5035730;28;20558;-64
2023/10/21 10:47:22;;;;;;;18.20;17.60;;;20.50;99.90;;;;;;5031635;28;20204;-63
2023/10/21 10:49:56;;;;;;;18.03;17.43;;;20.50;99.90;;;;;;5036225;28;20213;-66
2023/10/21 10:52:27;;;;;;;20.07;19.37;;;20.40;99.90;;;;;;5035962;28;20764;-65
2023/10/21 10:54:54;;;;;;;17.53;16.93;;;20.30;99.90;;;;;;5042693;28;20227;-65
2023/10/21 10:57:21;;;;;;;17.97;17.37;;;20.30;99.90;;;;;;5037108;28;20617;-64
2023/10/21 10:59:50;;;;;;;18.23;17.53;;;20.40;99.90;;;;;;5037383;28;20272;-65
2023/10/21 11:02:18;;;;;;;18.13;17.53;;;20.60;99.90;;;;;;5038570;28;20272;-66
2023/10/21 11:04:48;;;;;;;18.57;17.87;;;20.50;99.90;;;;;;5037782;28;20607;-65
2023/10/21 11:07:17;;;;;;;19.27;18.57;;;20.50;99.90;;;;;;5037739;28;20251;-65
2023/10/21 11:09:44;;;;;;;20.10;19.40;;;20.70;99.90;;;;;;5039255;28;20212;-64
2023/10/21 11:12:10;;;;;;;20.67;19.97;;;20.70;99.90;;;;;;5036598;28;20311;-65
2023/10/21 11:14:38;;;;;;;18.00;17.40;;;20.50;99.90;;;;;;5036416;28;20653;-64
2023/10/21 11:17:05;;;;;;;20.13;19.33;;;20.60;99.90;;;;;;5035997;28;20299;-65
2023/10/21 11:19:33;;;;;;;19.50;18.80;;;20.70;99.90;;;;;;5036718;28;20210;-65
2023/10/21 11:22:07;;;;;;;19.83;19.13;;;20.70;99.90;;;;;;5036472;28;20315;-67
2023/10/21 11:24:35;;;;;;;19.00;18.40;;;20.60;99.90;;;;;;5037840;28;20196;-65
2023/10/21 11:27:04;;;;;;;19.77;19.07;;;20.60;99.90;;;;;;5044447;28;20296;-67
2023/10/21 11:29:31;;;;;;;18.33;17.73;;;20.60;99.90;;;;;;5040806;28;20208;-67
2023/10/21 11:31:58;;;;;;;18.63;18.03;;;20.70;99.90;;;;;;5036732;28;20232;-66
2023/10/21 11:34:25;;;;;;;19.07;18.37;;;20.60;99.90;;;;;;5033733;28;20249;-66
2023/10/21 11:36:56;;;;;;;18.50;17.90;;;20.60;99.90;;;;;;5036158;28;20209;-66
2023/10/21 11:39:22;;;;;;;18.00;17.33;;;20.60;99.90;;;;;;5037671;28;20209;-63
2023/10/21 11:41:50;;;;;;;18.33;17.73;;;20.30;99.90;;;;;;5042664;28;20235;-65
2023/10/21 11:44:24;;;;;;;17.50;16.90;;;20.30;99.90;;;;;;5051127;28;20212;-66
2023/10/21 11:46:56;;;;;;;17.70;17.10;;;20.20;99.90;;;;;;5050404;28;20234;-66
2023/10/21 11:49:23;;;;;;;17.10;16.50;;;20.30;99.90;;;;;;5050373;28;20208;-65
2023/10/21 11:51:52;;;;;;;16.80;16.20;;;20.30;99.90;;;;;;5049956;28;20228;-64
2023/10/21 11:54:32;;;;;;;17.83;17.23;;;20.40;99.90;;;;;;5050286;28;20221;-65
2023/10/21 12:06:07;;;;;;;16.83;16.23;;;20.30;99.90;;;;;;5037069;28;20196;-67
2023/10/21 12:17:50;;;;;;;17.37;16.77;;;20.60;99.90;;;;;;5014489;28;20232;-65
2023/10/21 12:39:37;;;;;;;19.10;18.40;;;20.90;99.90;;;;;;5031575;28;20261;-66
2023/10/21 12:42:17;;;;;;;18.23;17.63;;;20.90;99.90;;;;;;5033974;28;20232;-65
2023/10/21 12:44:51;;;;;;;18.10;17.47;;;21.00;99.90;;;;;;5033266;28;20200;-65
2023/10/21 12:47:18;;;;;;;17.80;17.20;;;21.30;99.90;;;;;;5033275;28;20586;-66
2023/10/21 12:49:46;;;;;;;20.00;19.30;;;21.40;99.90;;;;;;5033005;28;20663;-67
2023/10/21 12:52:13;;;;;;;21.40;20.70;;;21.30;99.90;;;;;;5034679;28;20259;-67
2023/10/21 12:54:40;;;;;;;23.40;22.60;;;21.20;99.90;;;;;;5033754;28;20212;-66
2023/10/21 12:57:07;;;;;;;20.67;19.97;;;21.00;99.90;;;;;;5033424;28;20208;-65
2023/10/21 12:59:34;;;;;;;19.83;19.13;;;21.10;99.90;;;;;;5033590;28;20275;-66
2023/10/21 13:02:07;;;;;;;18.20;17.60;;;21.20;99.90;;;;;;5032805;28;20260;-65
2023/10/21 13:04:35;;;;;;;19.98;19.27;;;21.30;99.90;;;;;;5030341;28;20208;-66
2023/10/21 13:07:04;;;;;;;22.30;21.50;;;21.40;99.90;;;;;;5033846;28;20225;-66
2023/10/21 13:09:31;;;;;;;22.48;21.70;;;21.40;99.90;;;;;;5032781;28;20655;-65